createdAt,value
2022-10-06T00:00:34.954Z,1011.79
2022-10-06T00:01:35.011Z,1011.75
2022-10-06T00:02:34.966Z,1011.68
2022-10-06T00:03:34.913Z,1011.75
2022-10-06T00:04:34.901Z,1011.74
2022-10-06T00:05:34.889Z,1011.73
2022-10-06T00:06:34.869Z,1011.70
2022-10-06T00:07:34.864Z,1011.74
2022-10-06T00:08:34.850Z,1011.79
2022-10-06T00:09:34.890Z,1011.81
2022-10-06T00:10:34.811Z,1011.77
2022-10-06T00:11:34.802Z,1011.78
2022-10-06T00:12:34.792Z,1011.82
2022-10-06T00:13:34.783Z,1011.80
2022-10-06T00:14:34.762Z,1011.82
2022-10-06T00:15:34.793Z,1011.74
2022-10-06T00:16:34.744Z,1011.81
2022-10-06T00:17:34.713Z,1011.82
2022-10-06T00:18:34.747Z,1011.83
2022-10-06T00:19:34.701Z,1011.88
2022-10-06T00:20:34.691Z,1011.84
2022-10-06T00:21:34.670Z,1011.82
2022-10-06T00:22:34.673Z,1011.84
2022-10-06T00:23:34.657Z,1011.83
2022-10-06T00:24:34.633Z,1011.90
2022-10-06T00:25:34.615Z,1011.90
2022-10-06T00:26:34.641Z,1011.87
2022-10-06T00:27:34.603Z,1011.93
2022-10-06T00:28:35.006Z,1011.96
2022-10-06T00:29:34.573Z,1011.98
2022-10-06T00:30:34.561Z,1012.00
2022-10-06T00:31:34.651Z,1012.01
2022-10-06T00:32:34.530Z,1011.99
2022-10-06T00:33:34.512Z,1012.05
2022-10-06T00:34:34.514Z,1012.04
2022-10-06T00:35:34.482Z,1012.03
2022-10-06T00:36:34.480Z,1012.03
2022-10-06T00:37:34.464Z,1012.08
2022-10-06T00:38:34.455Z,1012.09
2022-10-06T00:39:34.456Z,1012.05
2022-10-06T00:40:34.431Z,1012.03
2022-10-06T00:41:34.417Z,1012.06
2022-10-06T00:42:34.405Z,1012.05
2022-10-06T00:43:34.384Z,1012.07
2022-10-06T00:44:34.385Z,1012.08
2022-10-06T00:45:34.378Z,1012.07
2022-10-06T00:46:34.432Z,1012.12
2022-10-06T00:47:34.323Z,1012.13
2022-10-06T00:48:34.327Z,1012.12
2022-10-06T00:49:34.313Z,1012.12
2022-10-06T00:50:34.304Z,1012.09
2022-10-06T00:51:34.284Z,1012.17
2022-10-06T00:52:34.265Z,1012.11
2022-10-06T00:53:34.253Z,1012.16
2022-10-06T00:54:34.274Z,1012.17
2022-10-06T00:55:34.269Z,1012.11
2022-10-06T00:56:34.228Z,1012.07
2022-10-06T00:57:34.225Z,1012.13
2022-10-06T00:58:34.205Z,1012.12
2022-10-06T00:59:34.186Z,1012.14
2022-10-06T01:00:34.195Z,1012.15
2022-10-06T01:01:34.213Z,1012.22
2022-10-06T01:02:34.225Z,1012.21
2022-10-06T01:03:34.127Z,1012.23
2022-10-06T01:04:34.113Z,1012.28
2022-10-06T01:05:34.096Z,1012.26
2022-10-06T01:06:34.096Z,1012.26
2022-10-06T01:07:34.067Z,1012.26
2022-10-06T01:08:34.066Z,1012.31
2022-10-06T01:09:34.047Z,1012.33
2022-10-06T01:10:34.044Z,1012.31
2022-10-06T01:11:34.040Z,1012.35
2022-10-06T01:12:34.038Z,1012.29
2022-10-06T01:13:34.000Z,1012.31
2022-10-06T01:14:34.003Z,1012.34
2022-10-06T01:15:34.014Z,1012.23
2022-10-06T01:16:33.976Z,1012.26
2022-10-06T01:17:33.945Z,1012.25
2022-10-06T01:18:33.944Z,1012.23
2022-10-06T01:19:33.928Z,1012.24
2022-10-06T01:20:33.935Z,1012.25
2022-10-06T01:21:40.915Z,1012.23
2022-10-06T01:22:33.904Z,1012.20
2022-10-06T01:23:33.875Z,1012.20
2022-10-06T01:24:33.866Z,1012.21
2022-10-06T01:25:33.836Z,1012.23
2022-10-06T01:26:33.837Z,1012.30
2022-10-06T01:27:33.865Z,1012.33
2022-10-06T01:28:34.270Z,1012.27
2022-10-06T01:29:33.806Z,1012.22
2022-10-06T01:30:33.777Z,1012.27
2022-10-06T01:31:33.837Z,1012.32
2022-10-06T01:32:33.755Z,1012.34
2022-10-06T01:33:33.756Z,1012.36
2022-10-06T01:34:33.751Z,1012.35
2022-10-06T01:35:33.728Z,1012.34
2022-10-06T01:36:33.727Z,1012.42
2022-10-06T01:37:33.705Z,1012.37
2022-10-06T01:38:33.701Z,1012.35
2022-10-06T01:39:33.669Z,1012.38
2022-10-06T01:40:33.665Z,1012.37
2022-10-06T01:41:33.626Z,1012.39
2022-10-06T01:42:33.650Z,1012.45
2022-10-06T01:43:33.616Z,1012.50
2022-10-06T01:44:33.598Z,1012.50
2022-10-06T01:45:33.596Z,1012.54
2022-10-06T01:46:33.631Z,1012.47
2022-10-06T01:47:33.555Z,1012.46
2022-10-06T01:48:33.545Z,1012.47
2022-10-06T01:49:33.548Z,1012.44
2022-10-06T01:50:33.520Z,1012.37
2022-10-06T01:51:33.508Z,1012.38
2022-10-06T01:52:33.575Z,1012.46
2022-10-06T01:53:33.480Z,1012.39
2022-10-06T01:54:33.468Z,1012.39
2022-10-06T01:55:33.469Z,1012.43
2022-10-06T01:56:33.440Z,1012.39
2022-10-06T01:57:33.467Z,1012.39
2022-10-06T01:58:33.420Z,1012.42
2022-10-06T01:59:33.419Z,1012.40
2022-10-06T02:00:33.390Z,1012.46
2022-10-06T02:01:33.488Z,1012.40
2022-10-06T02:02:33.405Z,1012.40
2022-10-06T02:03:33.348Z,1012.40
2022-10-06T02:04:33.351Z,1012.45
2022-10-06T02:05:33.322Z,1012.44
2022-10-06T02:06:33.362Z,1012.46
2022-10-06T02:07:33.311Z,1012.47
2022-10-06T02:08:33.301Z,1012.47
2022-10-06T02:09:33.268Z,1012.37
2022-10-06T02:10:33.270Z,1012.43
2022-10-06T02:11:33.241Z,1012.47
2022-10-06T02:12:33.230Z,1012.49
2022-10-06T02:13:33.244Z,1012.49
2022-10-06T02:14:33.209Z,1012.47
2022-10-06T02:15:33.189Z,1012.50
2022-10-06T02:16:33.180Z,1012.50
2022-10-06T02:17:33.181Z,1012.46
2022-10-06T02:18:33.163Z,1012.47
2022-10-06T02:19:33.162Z,1012.45
2022-10-06T02:20:33.131Z,1012.39
2022-10-06T02:21:33.100Z,1012.42
2022-10-06T02:22:33.098Z,1012.44
2022-10-06T02:23:33.096Z,1012.46
2022-10-06T02:24:33.082Z,1012.43
2022-10-06T02:25:33.050Z,1012.48
2022-10-06T02:26:33.051Z,1012.46
2022-10-06T02:27:33.029Z,1012.50
2022-10-06T02:28:33.551Z,1012.56
2022-10-06T02:29:33.012Z,1012.55
2022-10-06T02:30:33.024Z,1012.54
2022-10-06T02:31:33.070Z,1012.57
2022-10-06T02:32:32.973Z,1012.58
2022-10-06T02:33:32.960Z,1012.57
2022-10-06T02:34:32.950Z,1012.49
2022-10-06T02:35:32.943Z,1012.55
2022-10-06T02:36:32.922Z,1012.56
2022-10-06T02:37:32.893Z,1012.68
2022-10-06T02:38:33.033Z,1012.70
2022-10-06T02:39:32.881Z,1012.70
2022-10-06T02:40:32.860Z,1012.74
2022-10-06T02:41:32.860Z,1012.73
2022-10-06T02:42:32.833Z,1012.77
2022-10-06T02:43:32.822Z,1012.73
2022-10-06T02:44:32.821Z,1012.79
2022-10-06T02:45:32.807Z,1012.79
2022-10-06T02:46:32.841Z,1012.73
2022-10-06T02:47:32.785Z,1012.71
2022-10-06T02:48:32.921Z,1012.77
2022-10-06T02:49:32.794Z,1012.76
2022-10-06T02:50:32.754Z,1012.75
2022-10-06T02:51:32.717Z,1012.76
2022-10-06T02:52:32.706Z,1012.81
2022-10-06T02:53:32.696Z,1012.73
2022-10-06T02:54:32.693Z,1012.73
2022-10-06T02:55:32.673Z,1012.85
2022-10-06T02:56:32.652Z,1012.85
2022-10-06T02:57:32.652Z,1012.79
2022-10-06T02:58:32.918Z,1012.76
2022-10-06T02:59:32.614Z,1012.81
2022-10-06T03:00:32.643Z,1012.87
2022-10-06T03:01:32.675Z,1012.88
2022-10-06T03:02:32.660Z,1012.92
2022-10-06T03:03:32.563Z,1012.92
2022-10-06T03:04:32.555Z,1012.94
2022-10-06T03:05:32.549Z,1012.93
2022-10-06T03:06:32.524Z,1012.96
2022-10-06T03:07:32.506Z,1012.95
2022-10-06T03:08:32.670Z,1012.98
2022-10-06T03:09:32.481Z,1013.04
2022-10-06T03:10:32.484Z,1013.01
2022-10-06T03:11:32.533Z,1013.03
2022-10-06T03:12:32.452Z,1013.02
2022-10-06T03:13:32.443Z,1012.99
2022-10-06T03:14:32.423Z,1013.06
2022-10-06T03:15:32.405Z,1013.01
2022-10-06T03:16:32.489Z,1012.98
2022-10-06T03:17:32.386Z,1013.08
2022-10-06T03:18:32.756Z,1013.04
2022-10-06T03:19:32.405Z,1013.04
2022-10-06T03:20:32.345Z,1013.05
2022-10-06T03:21:32.333Z,1013.14
2022-10-06T03:22:32.338Z,1013.14
2022-10-06T03:23:32.311Z,1013.11
2022-10-06T03:24:32.284Z,1013.16
2022-10-06T03:25:32.279Z,1013.14
2022-10-06T03:26:32.258Z,1013.13
2022-10-06T03:27:32.259Z,1013.13
2022-10-06T03:28:32.879Z,1013.13
2022-10-06T03:29:32.226Z,1013.14
2022-10-06T03:30:32.208Z,1013.14
2022-10-06T03:31:32.303Z,1013.11
2022-10-06T03:32:32.199Z,1013.21
2022-10-06T03:33:32.187Z,1013.25
2022-10-06T03:34:32.157Z,1013.23
2022-10-06T03:35:32.146Z,1013.22
2022-10-06T03:36:32.147Z,1013.29
2022-10-06T03:37:32.121Z,1013.30
2022-10-06T03:38:32.221Z,1013.33
2022-10-06T03:39:32.092Z,1013.40
2022-10-06T03:40:32.077Z,1013.45
2022-10-06T03:41:32.076Z,1013.47
2022-10-06T03:42:32.079Z,1013.49
2022-10-06T03:43:32.089Z,1013.54
2022-10-06T03:44:32.052Z,1013.60
2022-10-06T03:45:32.037Z,1013.60
2022-10-06T03:46:32.086Z,1013.60
2022-10-06T03:47:32.009Z,1013.56
2022-10-06T03:48:32.525Z,1013.68
2022-10-06T03:49:31.958Z,1013.68
2022-10-06T03:50:31.960Z,1013.69
2022-10-06T03:51:31.944Z,1013.78
2022-10-06T03:52:31.919Z,1013.82
2022-10-06T03:53:31.919Z,1013.86
2022-10-06T03:54:31.890Z,1013.91
2022-10-06T03:55:31.889Z,1013.91
2022-10-06T03:56:31.880Z,1013.96
2022-10-06T03:57:31.863Z,1013.96
2022-10-06T03:58:32.357Z,1013.89
2022-10-06T03:59:31.848Z,1013.96
2022-10-06T04:00:32.019Z,1014.01
2022-10-06T04:01:31.839Z,1014.20
2022-10-06T04:02:31.858Z,1014.16
2022-10-06T04:03:31.780Z,1014.22
2022-10-06T04:04:31.782Z,1014.23
2022-10-06T04:05:31.762Z,1014.32
2022-10-06T04:06:31.738Z,1014.29
2022-10-06T04:07:31.720Z,1014.23
2022-10-06T04:08:32.116Z,1014.26
2022-10-06T04:09:31.690Z,1014.25
2022-10-06T04:10:31.713Z,1014.19
2022-10-06T04:11:31.711Z,1014.18
2022-10-06T04:12:31.673Z,1014.19
2022-10-06T04:13:31.674Z,1014.19
2022-10-06T04:14:31.642Z,1014.22
2022-10-06T04:15:31.623Z,1014.34
2022-10-06T04:16:31.681Z,1014.44
2022-10-06T04:17:31.609Z,1014.45
2022-10-06T04:18:32.083Z,1014.54
2022-10-06T04:19:31.587Z,1014.46
2022-10-06T04:20:31.602Z,1014.59
2022-10-06T04:21:31.569Z,1014.55
2022-10-06T04:22:31.529Z,1014.51
2022-10-06T04:23:31.511Z,1014.54
2022-10-06T04:24:31.526Z,1014.48
2022-10-06T04:25:31.493Z,1014.57
2022-10-06T04:26:31.475Z,1014.63
2022-10-06T04:27:31.465Z,1014.63
2022-10-06T04:28:31.862Z,1014.65
2022-10-06T04:29:31.432Z,1014.76
2022-10-06T04:30:31.448Z,1014.69
2022-10-06T04:31:31.474Z,1014.72
2022-10-06T04:32:31.394Z,1014.76
2022-10-06T04:33:31.392Z,1014.75
2022-10-06T04:34:31.373Z,1014.80
2022-10-06T04:35:31.383Z,1014.85
2022-10-06T04:36:31.362Z,1014.81
2022-10-06T04:37:31.335Z,1014.80
2022-10-06T04:38:31.980Z,1014.84
2022-10-06T04:39:31.312Z,1014.88
2022-10-06T04:40:31.296Z,1014.76
2022-10-06T04:41:31.285Z,1014.82
2022-10-06T04:42:34.856Z,1014.86
2022-10-06T04:43:31.273Z,1014.92
2022-10-06T04:44:31.235Z,1014.89
2022-10-06T04:45:31.286Z,1014.92
2022-10-06T04:46:42.848Z,1014.91
2022-10-06T04:47:32.234Z,1014.90
2022-10-06T04:48:31.587Z,1015.01
2022-10-06T04:49:31.196Z,1014.84
2022-10-06T04:50:31.164Z,1014.93
2022-10-06T04:51:31.145Z,1014.86
2022-10-06T04:52:31.155Z,1015.06
2022-10-06T04:53:31.126Z,1014.98
2022-10-06T04:54:33.662Z,1014.91
2022-10-06T04:55:31.106Z,1014.89
2022-10-06T04:56:31.142Z,1014.93
2022-10-06T04:57:31.097Z,1015.01
2022-10-06T04:58:31.590Z,1014.92
2022-10-06T04:59:31.047Z,1015.05
2022-10-06T05:00:31.049Z,1014.98
2022-10-06T05:01:31.070Z,1015.03
2022-10-06T05:02:31.038Z,1015.11
2022-10-06T05:03:31.014Z,1015.14
2022-10-06T05:04:31.008Z,1015.15
2022-10-06T05:05:30.965Z,1015.12
2022-10-06T05:06:30.946Z,1015.07
2022-10-06T05:07:30.936Z,1015.12
2022-10-06T05:08:31.376Z,1015.10
2022-10-06T05:09:30.928Z,1015.23
2022-10-06T05:10:30.915Z,1015.13
2022-10-06T05:11:30.898Z,1015.17
2022-10-06T05:12:30.879Z,1015.26
2022-10-06T05:13:30.878Z,1015.29
2022-10-06T05:14:30.857Z,1015.35
2022-10-06T05:15:30.848Z,1015.34
2022-10-06T05:16:30.882Z,1015.38
2022-10-06T05:17:30.820Z,1015.41
2022-10-06T05:18:31.182Z,1015.38
2022-10-06T05:19:30.787Z,1015.42
2022-10-06T05:20:30.776Z,1015.51
2022-10-06T05:21:30.757Z,1015.52
2022-10-06T05:22:30.750Z,1015.44
2022-10-06T05:23:30.743Z,1015.62
2022-10-06T05:24:30.746Z,1015.73
2022-10-06T05:25:30.722Z,1015.62
2022-10-06T05:26:30.710Z,1015.66
2022-10-06T05:27:30.699Z,1015.69
2022-10-06T05:28:31.048Z,1015.72
2022-10-06T05:29:30.649Z,1015.69
2022-10-06T05:30:30.639Z,1015.67
2022-10-06T05:31:30.636Z,1015.79
2022-10-06T05:32:35.776Z,1015.82
2022-10-06T05:33:31.609Z,1015.80
2022-10-06T05:34:30.591Z,1015.85
2022-10-06T05:35:30.581Z,1015.84
2022-10-06T05:36:30.564Z,1015.92
2022-10-06T05:37:30.573Z,1015.98
2022-10-06T05:38:30.963Z,1015.95
2022-10-06T05:39:30.534Z,1015.95
2022-10-06T05:40:30.511Z,1016.00
2022-10-06T05:41:30.511Z,1016.04
2022-10-06T05:42:30.501Z,1015.99
2022-10-06T05:43:30.480Z,1015.99
2022-10-06T05:44:30.488Z,1016.11
2022-10-06T05:45:30.637Z,1016.06
2022-10-06T05:46:30.438Z,1016.17
2022-10-06T05:47:30.430Z,1016.19
2022-10-06T05:48:30.947Z,1016.17
2022-10-06T05:49:30.423Z,1016.26
2022-10-06T05:50:30.392Z,1016.13
2022-10-06T05:51:31.377Z,1016.21
2022-10-06T05:52:30.360Z,1016.24
2022-10-06T05:53:30.354Z,1016.32
2022-10-06T05:54:30.351Z,1016.38
2022-10-06T05:55:30.322Z,1016.50
2022-10-06T05:56:30.314Z,1016.50
2022-10-06T05:57:30.291Z,1016.56
2022-10-06T05:58:30.806Z,1016.53
2022-10-06T05:59:30.284Z,1016.54
2022-10-06T06:00:30.274Z,1016.59
2022-10-06T06:01:30.307Z,1016.53
2022-10-06T06:02:30.285Z,1016.57
2022-10-06T06:03:30.233Z,1016.60
2022-10-06T06:04:30.202Z,1016.65
2022-10-06T06:05:30.195Z,1016.65
2022-10-06T06:06:30.183Z,1016.73
2022-10-06T06:07:30.164Z,1016.80
2022-10-06T06:08:30.515Z,1016.77
2022-10-06T06:09:30.174Z,1016.86
2022-10-06T06:10:30.136Z,1016.92
2022-10-06T06:11:30.154Z,1016.93
2022-10-06T06:12:30.102Z,1016.91
2022-10-06T06:13:30.085Z,1016.92
2022-10-06T06:14:30.064Z,1016.97
2022-10-06T06:15:30.109Z,1017.09
2022-10-06T06:16:30.105Z,1017.09
2022-10-06T06:17:30.035Z,1017.07
2022-10-06T06:18:30.345Z,1017.15
2022-10-06T06:19:30.006Z,1017.11
2022-10-06T06:20:30.024Z,1017.18
2022-10-06T06:21:29.986Z,1017.27
2022-10-06T06:22:29.966Z,1017.33
2022-10-06T06:23:29.964Z,1017.30
2022-10-06T06:24:29.945Z,1017.32
2022-10-06T06:25:29.963Z,1017.38
2022-10-06T06:26:29.923Z,1017.35
2022-10-06T06:27:29.915Z,1017.43
2022-10-06T06:28:30.434Z,1017.38
2022-10-06T06:29:29.888Z,1017.45
2022-10-06T06:30:29.856Z,1017.55
2022-10-06T06:31:29.935Z,1017.54
2022-10-06T06:32:29.835Z,1017.61
2022-10-06T06:33:29.859Z,1017.58
2022-10-06T06:34:29.808Z,1017.63
2022-10-06T06:35:29.797Z,1017.57
2022-10-06T06:36:29.786Z,1017.65
2022-10-06T06:37:29.819Z,1017.65
2022-10-06T06:38:29.965Z,1017.73
2022-10-06T06:39:29.757Z,1017.74
2022-10-06T06:40:29.795Z,1017.72
2022-10-06T06:41:29.715Z,1017.76
2022-10-06T06:42:29.695Z,1017.78
2022-10-06T06:43:29.885Z,1017.81
2022-10-06T06:44:29.676Z,1017.84
2022-10-06T06:45:29.675Z,1017.86
2022-10-06T06:46:29.765Z,1018.09
2022-10-06T06:47:29.654Z,1017.90
2022-10-06T06:48:29.850Z,1017.86
2022-10-06T06:49:29.637Z,1018.06
2022-10-06T06:50:29.618Z,1018.08
2022-10-06T06:51:29.597Z,1018.09
2022-10-06T06:52:29.588Z,1018.09
2022-10-06T06:53:29.564Z,1018.08
2022-10-06T06:54:29.597Z,1018.05
2022-10-06T06:55:29.534Z,1018.04
2022-10-06T06:56:29.571Z,1018.17
2022-10-06T06:57:29.533Z,1018.21
2022-10-06T06:58:29.741Z,1018.29
2022-10-06T06:59:29.477Z,1018.40
2022-10-06T07:00:33.788Z,1018.47
2022-10-06T07:01:30.525Z,1018.34
2022-10-06T07:02:29.527Z,1018.32
2022-10-06T07:03:55.434Z,1018.46
2022-10-06T07:04:30.423Z,1018.42
2022-10-06T07:05:29.458Z,1018.34
2022-10-06T07:06:29.557Z,1018.38
2022-10-06T07:07:29.380Z,1018.69
2022-10-06T07:08:29.675Z,1018.45
2022-10-06T07:09:29.360Z,1018.55
2022-10-06T07:10:29.348Z,1018.56
2022-10-06T07:11:29.352Z,1018.63
2022-10-06T07:12:29.308Z,1018.65
2022-10-06T07:13:29.309Z,1018.68
2022-10-06T07:14:29.298Z,1018.80
2022-10-06T07:15:29.349Z,1018.69
2022-10-06T07:16:29.259Z,1018.72
2022-10-06T07:17:29.262Z,1018.79
2022-10-06T07:18:29.515Z,1018.74
2022-10-06T07:19:29.221Z,1018.81
2022-10-06T07:20:29.219Z,1018.69
2022-10-06T07:21:39.099Z,1018.70
2022-10-06T07:22:29.248Z,1018.72
2022-10-06T07:23:29.207Z,1018.76
2022-10-06T07:24:29.158Z,1018.76
2022-10-06T07:25:29.148Z,1018.90
2022-10-06T07:26:29.130Z,1018.86
2022-10-06T07:27:29.117Z,1018.83
2022-10-06T07:28:29.143Z,1018.89
2022-10-06T07:29:29.098Z,1018.81
2022-10-06T07:30:29.080Z,1018.95
2022-10-06T07:31:29.128Z,1018.95
2022-10-06T07:32:29.050Z,1018.92
2022-10-06T07:33:29.052Z,1018.89
2022-10-06T07:34:29.072Z,1018.86
2022-10-06T07:35:29.011Z,1018.92
2022-10-06T07:36:29.015Z,1018.97
2022-10-06T07:37:28.994Z,1019.09
2022-10-06T07:38:28.971Z,1019.02
2022-10-06T07:39:29.029Z,1019.12
2022-10-06T07:40:28.939Z,1019.20
2022-10-06T07:41:28.950Z,1019.08
2022-10-06T07:42:28.913Z,1019.13
2022-10-06T07:43:28.890Z,1019.13
2022-10-06T07:44:28.900Z,1019.13
2022-10-06T07:45:28.881Z,1019.17
2022-10-06T07:46:28.947Z,1019.52
2022-10-06T07:47:28.853Z,1019.29
2022-10-06T07:48:28.855Z,1019.22
2022-10-06T07:49:28.830Z,1019.25
2022-10-06T07:50:28.822Z,1019.39
2022-10-06T07:51:28.820Z,1019.29
2022-10-06T07:52:28.797Z,1019.24
2022-10-06T07:53:28.832Z,1019.17
2022-10-06T07:54:28.782Z,1019.29
2022-10-06T07:55:28.762Z,1019.26
2022-10-06T07:56:28.743Z,1019.24
2022-10-06T07:57:28.721Z,1019.25
2022-10-06T07:58:28.704Z,1019.32
2022-10-06T07:59:28.721Z,1019.30
2022-10-06T08:00:28.742Z,1019.33
2022-10-06T08:01:28.726Z,1019.40
2022-10-06T08:02:30.265Z,1019.39
2022-10-06T08:03:28.735Z,1019.41
2022-10-06T08:04:28.634Z,1019.68
2022-10-06T08:05:28.636Z,1019.46
2022-10-06T08:06:28.615Z,1019.47
2022-10-06T08:07:28.624Z,1019.48
2022-10-06T08:08:28.604Z,1019.43
2022-10-06T08:09:28.585Z,1019.50
2022-10-06T08:10:28.565Z,1019.47
2022-10-06T08:11:28.543Z,1019.48
2022-10-06T08:12:28.535Z,1019.64
2022-10-06T08:13:28.526Z,1019.55
2022-10-06T08:14:28.503Z,1019.57
2022-10-06T08:15:28.486Z,1019.53
2022-10-06T08:16:28.520Z,1019.66
2022-10-06T08:17:28.494Z,1019.60
2022-10-06T08:18:45.324Z,1019.66
2022-10-06T08:19:29.445Z,1019.61
2022-10-06T08:20:28.426Z,1019.66
2022-10-06T08:21:28.425Z,1019.72
2022-10-06T08:22:28.476Z,1019.81
2022-10-06T08:23:28.406Z,1019.72
2022-10-06T08:24:37.874Z,1019.76
2022-10-06T08:25:29.366Z,1019.85
2022-10-06T08:26:28.357Z,1019.80
2022-10-06T08:27:28.406Z,1019.76
2022-10-06T08:28:28.574Z,1019.73
2022-10-06T08:29:28.314Z,1019.86
2022-10-06T08:30:28.303Z,1019.89
2022-10-06T08:31:28.361Z,1020.13
2022-10-06T08:32:28.345Z,1019.86
2022-10-06T08:33:28.263Z,1020.00
2022-10-06T08:34:28.263Z,1019.93
2022-10-06T08:35:28.353Z,1019.94
2022-10-06T08:36:31.312Z,1020.01
2022-10-06T08:37:28.392Z,1020.01
2022-10-06T08:38:28.227Z,1019.97
2022-10-06T08:39:28.205Z,1020.02
2022-10-06T08:40:28.183Z,1020.05
2022-10-06T08:41:28.171Z,1020.12
2022-10-06T08:42:28.146Z,1020.22
2022-10-06T08:43:28.140Z,1020.04
2022-10-06T08:44:28.149Z,1020.02
2022-10-06T08:45:28.147Z,1020.06
2022-10-06T08:46:28.116Z,1020.11
2022-10-06T08:47:28.116Z,1020.20
2022-10-06T08:48:28.096Z,1020.18
2022-10-06T08:49:28.090Z,1020.24
2022-10-06T08:50:28.060Z,1020.27
2022-10-06T08:51:28.057Z,1020.40
2022-10-06T08:52:28.069Z,1020.15
2022-10-06T08:53:28.007Z,1020.26
2022-10-06T08:54:28.038Z,1020.28
2022-10-06T08:55:27.998Z,1020.50
2022-10-06T08:56:27.978Z,1020.52
2022-10-06T08:57:27.969Z,1020.61
2022-10-06T08:58:27.968Z,1020.41
2022-10-06T08:59:27.951Z,1020.52
2022-10-06T09:00:27.939Z,1020.37
2022-10-06T09:01:27.972Z,1020.41
2022-10-06T09:02:27.967Z,1020.36
2022-10-06T09:03:27.906Z,1020.34
2022-10-06T09:04:27.890Z,1020.38
2022-10-06T09:05:27.911Z,1020.41
2022-10-06T09:06:27.871Z,1020.32
2022-10-06T09:07:27.829Z,1020.43
2022-10-06T09:08:27.819Z,1020.37
2022-10-06T09:09:27.809Z,1020.46
2022-10-06T09:10:27.799Z,1020.44
2022-10-06T09:11:28.470Z,1020.52
2022-10-06T09:12:27.789Z,1020.54
2022-10-06T09:13:27.760Z,1020.54
2022-10-06T09:14:27.749Z,1020.45
2022-10-06T09:15:27.753Z,1020.63
2022-10-06T09:16:27.807Z,1020.40
2022-10-06T09:17:27.713Z,1020.47
2022-10-06T09:18:43.498Z,1020.55
2022-10-06T09:19:32.850Z,1020.52
2022-10-06T09:20:28.672Z,1020.62
2022-10-06T09:21:27.663Z,1020.56
2022-10-06T09:22:27.654Z,1020.57
2022-10-06T09:23:27.642Z,1020.62
2022-10-06T09:24:27.625Z,1020.62
2022-10-06T09:25:27.599Z,1020.60
2022-10-06T09:26:27.582Z,1020.59
2022-10-06T09:27:27.600Z,1020.61
2022-10-06T09:28:27.637Z,1020.66
2022-10-06T09:29:27.561Z,1020.61
2022-10-06T09:30:27.532Z,1020.69
2022-10-06T09:31:27.733Z,1020.69
2022-10-06T09:32:27.515Z,1020.73
2022-10-06T09:33:27.504Z,1020.71
2022-10-06T09:34:27.534Z,1020.80
2022-10-06T09:35:27.465Z,1020.78
2022-10-06T09:36:27.455Z,1020.93
2022-10-06T09:37:27.466Z,1020.84
2022-10-06T09:38:27.426Z,1020.85
2022-10-06T09:39:27.426Z,1020.89
2022-10-06T09:40:27.400Z,1021.01
2022-10-06T09:41:27.393Z,1020.84
2022-10-06T09:42:27.381Z,1020.97
2022-10-06T09:43:27.367Z,1020.98
2022-10-06T09:44:27.368Z,1020.94
2022-10-06T09:45:27.335Z,1020.85
2022-10-06T09:46:27.326Z,1020.96
2022-10-06T09:47:27.304Z,1020.97
2022-10-06T09:48:27.303Z,1021.00
2022-10-06T09:49:27.299Z,1020.95
2022-10-06T09:50:27.324Z,1021.02
2022-10-06T09:51:27.262Z,1021.07
2022-10-06T09:52:27.244Z,1021.07
2022-10-06T09:53:27.246Z,1021.07
2022-10-06T09:54:27.222Z,1021.04
2022-10-06T09:55:27.269Z,1021.10
2022-10-06T09:56:27.197Z,1021.09
2022-10-06T09:57:27.197Z,1021.02
2022-10-06T09:58:27.175Z,1021.20
2022-10-06T09:59:27.156Z,1021.05
2022-10-06T10:00:27.157Z,1021.06
2022-10-06T10:01:27.255Z,1021.04
2022-10-06T10:02:27.241Z,1021.10
2022-10-06T10:03:27.114Z,1021.13
2022-10-06T10:04:27.097Z,1021.10
2022-10-06T10:05:27.086Z,1021.08
2022-10-06T10:06:27.067Z,1021.14
2022-10-06T10:07:27.118Z,1021.16
2022-10-06T10:08:27.099Z,1021.16
2022-10-06T10:09:27.108Z,1021.12
2022-10-06T10:10:27.038Z,1021.14
2022-10-06T10:11:27.018Z,1021.13
2022-10-06T10:12:26.998Z,1021.02
2022-10-06T10:13:27.008Z,1021.11
2022-10-06T10:14:26.968Z,1021.13
2022-10-06T10:15:26.958Z,1021.13
2022-10-06T10:16:27.126Z,1021.08
2022-10-06T10:17:26.935Z,1021.19
2022-10-06T10:18:26.998Z,1021.31
2022-10-06T10:19:26.900Z,1021.21
2022-10-06T10:20:26.888Z,1021.30
2022-10-06T10:21:26.887Z,1021.23
2022-10-06T10:22:26.934Z,1021.25
2022-10-06T10:23:31.151Z,1021.43
2022-10-06T10:24:27.868Z,1021.29
2022-10-06T10:25:26.819Z,1021.32
2022-10-06T10:26:26.809Z,1021.33
2022-10-06T10:27:26.800Z,1021.47
2022-10-06T10:28:26.850Z,1021.29
2022-10-06T10:29:30.524Z,1021.32
2022-10-06T10:30:27.767Z,1021.24
2022-10-06T10:31:26.822Z,1021.42
2022-10-06T10:32:26.770Z,1021.28
2022-10-06T10:33:26.763Z,1021.31
2022-10-06T10:34:26.712Z,1021.25
2022-10-06T10:35:26.770Z,1021.29
2022-10-06T10:36:26.670Z,1021.24
2022-10-06T10:37:26.659Z,1021.28
2022-10-06T10:38:26.648Z,1021.38
2022-10-06T10:39:26.642Z,1021.28
2022-10-06T10:40:26.621Z,1021.42
2022-10-06T10:41:26.610Z,1021.45
2022-10-06T10:42:26.590Z,1021.33
2022-10-06T10:43:26.604Z,1021.40
2022-10-06T10:44:26.685Z,1021.41
2022-10-06T10:45:26.561Z,1021.39
2022-10-06T10:46:26.570Z,1021.32
2022-10-06T10:47:26.531Z,1021.39
2022-10-06T10:48:26.581Z,1021.39
2022-10-06T10:49:26.502Z,1021.43
2022-10-06T10:50:26.516Z,1021.38
2022-10-06T10:51:26.485Z,1021.42
2022-10-06T10:52:26.472Z,1021.51
2022-10-06T10:53:26.453Z,1021.49
2022-10-06T10:54:26.436Z,1021.45
2022-10-06T10:55:26.434Z,1021.41
2022-10-06T10:56:26.421Z,1021.42
2022-10-06T10:57:26.394Z,1021.45
2022-10-06T10:58:26.435Z,1021.28
2022-10-06T10:59:26.372Z,1021.32
2022-10-06T11:00:26.353Z,1021.29
2022-10-06T11:01:26.365Z,1021.54
2022-10-06T11:02:26.330Z,1021.37
2022-10-06T11:03:26.352Z,1021.30
2022-10-06T11:04:26.304Z,1021.40
2022-10-06T11:05:28.831Z,1021.30
2022-10-06T11:06:26.289Z,1021.40
2022-10-06T11:07:26.276Z,1021.41
2022-10-06T11:08:26.245Z,1021.51
2022-10-06T11:09:26.236Z,1021.43
2022-10-06T11:10:26.241Z,1021.46
2022-10-06T11:11:26.208Z,1021.51
2022-10-06T11:12:26.196Z,1021.62
2022-10-06T11:13:26.184Z,1021.48
2022-10-06T11:14:26.176Z,1021.50
2022-10-06T11:15:26.165Z,1021.49
2022-10-06T11:16:26.214Z,1021.41
2022-10-06T11:17:26.125Z,1021.46
2022-10-06T11:18:26.127Z,1021.43
2022-10-06T11:19:26.097Z,1021.54
2022-10-06T11:20:26.103Z,1021.53
2022-10-06T11:21:26.085Z,1021.53
2022-10-06T11:22:26.070Z,1021.58
2022-10-06T11:23:26.063Z,1021.65
2022-10-06T11:24:26.062Z,1021.61
2022-10-06T11:25:26.951Z,1021.50
2022-10-06T11:26:26.028Z,1021.53
2022-10-06T11:27:26.125Z,1021.55
2022-10-06T11:28:26.048Z,1021.59
2022-10-06T11:29:25.986Z,1021.65
2022-10-06T11:30:25.980Z,1021.58
2022-10-06T11:31:26.027Z,1021.73
2022-10-06T11:32:25.947Z,1021.62
2022-10-06T11:33:25.947Z,1021.63
2022-10-06T11:34:25.911Z,1021.79
2022-10-06T11:35:25.896Z,1021.79
2022-10-06T11:36:25.889Z,1021.77
2022-10-06T11:37:25.880Z,1021.69
2022-10-06T11:38:25.858Z,1021.69
2022-10-06T11:39:25.857Z,1022.10
2022-10-06T11:40:25.841Z,1021.73
2022-10-06T11:41:25.831Z,1021.84
2022-10-06T11:42:25.896Z,1021.72
2022-10-06T11:43:25.811Z,1021.76
2022-10-06T11:44:25.790Z,1021.75
2022-10-06T11:45:25.779Z,1021.74
2022-10-06T11:46:29.670Z,1021.66
2022-10-06T11:47:35.017Z,1021.70
2022-10-06T11:48:26.761Z,1021.68
2022-10-06T11:49:25.710Z,1021.68
2022-10-06T11:50:25.710Z,1021.63
2022-10-06T11:51:25.699Z,1021.74
2022-10-06T11:52:25.679Z,1021.76
2022-10-06T11:53:25.681Z,1021.75
2022-10-06T11:54:25.682Z,1021.82
2022-10-06T11:55:25.649Z,1021.74
2022-10-06T11:56:25.620Z,1021.92
2022-10-06T11:57:30.633Z,1021.72
2022-10-06T11:58:42.753Z,1021.80
2022-10-06T11:59:26.590Z,1021.74
2022-10-06T12:00:25.571Z,1021.72
2022-10-06T12:01:25.571Z,1021.73
2022-10-06T12:02:25.665Z,1021.89
2022-10-06T12:03:25.707Z,1021.72
2022-10-06T12:04:25.523Z,1021.79
2022-10-06T12:06:26.503Z,1021.80